createdAt,value
2023-04-02T00:01:20.115Z,8.80
2023-04-02T00:04:05.544Z,8.80
2023-04-02T00:06:45.229Z,8.80
2023-04-02T00:09:25.717Z,8.70
2023-04-02T00:12:00.219Z,8.80
2023-04-02T00:14:35.701Z,8.80
2023-04-02T00:17:08.381Z,8.70
2023-04-02T00:19:57.075Z,8.70
2023-04-02T00:22:34.114Z,8.60
2023-04-02T00:25:13.398Z,8.60
2023-04-02T00:27:46.546Z,8.60
2023-04-02T00:30:19.407Z,8.60
2023-04-02T00:32:52.569Z,8.50
2023-04-02T00:35:28.985Z,8.50
2023-04-02T00:38:02.277Z,8.50
2023-04-02T00:40:38.985Z,8.50
2023-04-02T00:43:16.512Z,8.50
2023-04-02T00:45:56.069Z,8.50
2023-04-02T00:48:31.812Z,8.50
2023-04-02T00:51:32.321Z,8.60
2023-04-02T00:54:09.872Z,8.60
2023-04-02T00:56:48.784Z,8.60
2023-04-02T00:59:42.750Z,8.60
2023-04-02T01:02:17.325Z,8.60
2023-04-02T01:05:15.070Z,8.70
2023-04-02T01:08:00.875Z,8.70
2023-04-02T01:10:52.641Z,8.70
2023-04-02T01:14:07.778Z,8.70
2023-04-02T01:17:00.396Z,8.70
2023-04-02T01:19:48.989Z,8.70
2023-04-02T01:22:48.182Z,8.70
2023-04-02T01:25:43.876Z,8.70
2023-04-02T01:28:33.649Z,8.60
2023-04-02T01:31:06.477Z,8.60
2023-04-02T01:33:41.428Z,8.60
2023-04-02T01:36:41.265Z,8.60
2023-04-02T01:39:51.261Z,8.50
2023-04-02T01:43:07.870Z,8.50
2023-04-02T01:45:40.896Z,8.60
2023-04-02T01:48:22.045Z,8.60
2023-04-02T01:50:57.538Z,8.60
2023-04-02T01:53:32.154Z,8.60
2023-04-02T01:56:07.300Z,8.60
2023-04-02T01:58:40.748Z,8.60
2023-04-02T02:01:20.572Z,8.50
2023-04-02T02:03:56.310Z,8.60
2023-04-02T02:06:29.196Z,8.50
2023-04-02T02:09:04.362Z,8.50
2023-04-02T02:11:39.069Z,8.50
2023-04-02T02:14:24.664Z,8.60
2023-04-02T02:17:02.052Z,8.50
2023-04-02T02:19:39.770Z,8.60
2023-04-02T02:22:27.097Z,8.60
2023-04-02T02:25:03.672Z,8.50
2023-04-02T02:27:51.722Z,8.60
2023-04-02T02:30:50.720Z,8.60
2023-04-02T02:33:43.469Z,8.60
2023-04-02T02:36:23.093Z,8.60
2023-04-02T02:38:58.378Z,8.50
2023-04-02T02:42:13.927Z,8.50
2023-04-02T02:44:49.394Z,8.50
2023-04-02T02:47:26.503Z,8.60
2023-04-02T02:50:23.255Z,8.50
2023-04-02T02:52:59.182Z,8.50
2023-04-02T02:55:37.746Z,8.50
2023-04-02T02:58:27.866Z,8.50
2023-04-02T03:01:09.708Z,8.60
2023-04-02T03:03:47.447Z,8.60
2023-04-02T03:06:20.924Z,8.60
2023-04-02T03:09:45.555Z,8.50
2023-04-02T03:12:33.402Z,8.50
2023-04-02T03:15:17.801Z,8.50
2023-04-02T03:21:00.869Z,8.50
2023-04-02T03:23:40.495Z,8.40
2023-04-02T03:26:34.539Z,8.50
2023-04-02T03:29:23.332Z,8.40
2023-04-02T03:32:00.597Z,8.40
2023-04-02T03:34:45.432Z,8.50
2023-04-02T03:37:38.358Z,8.50
2023-04-02T03:40:21.785Z,8.50
2023-04-02T03:43:03.020Z,8.40
2023-04-02T03:45:40.851Z,8.50
2023-04-02T03:48:26.330Z,8.50
2023-04-02T03:51:06.677Z,8.50
2023-04-02T03:53:40.286Z,8.50
2023-04-02T03:56:28.400Z,8.40
2023-04-02T03:59:24.923Z,8.40
2023-04-02T04:02:04.004Z,8.40
2023-04-02T04:04:41.381Z,8.40
2023-04-02T04:07:31.188Z,8.50
2023-04-02T04:10:06.230Z,8.40
2023-04-02T04:12:46.358Z,8.40
2023-04-02T04:18:21.490Z,8.40
2023-04-02T04:21:00.762Z,8.40
2023-04-02T04:23:41.266Z,8.40
2023-04-02T04:26:34.855Z,8.40
2023-04-02T04:29:19.671Z,8.50
2023-04-02T04:31:56.112Z,8.50
2023-04-02T04:34:46.456Z,8.50
2023-04-02T04:37:25.557Z,8.50
2023-04-02T04:40:18.838Z,8.50
2023-04-02T04:42:55.199Z,8.50
2023-04-02T04:45:36.867Z,8.50
2023-04-02T04:48:36.498Z,8.40
2023-04-02T04:51:28.548Z,8.40
2023-04-02T04:54:02.485Z,8.40
2023-04-02T04:56:38.772Z,8.40
2023-04-02T04:59:29.670Z,8.40
2023-04-02T05:02:13.965Z,8.30
2023-04-02T05:04:52.206Z,8.30
2023-04-02T05:07:31.915Z,8.30
2023-04-02T05:10:13.432Z,8.30
2023-04-02T05:12:56.223Z,8.30
2023-04-02T05:15:32.653Z,8.20
2023-04-02T05:18:10.536Z,8.20
2023-04-02T05:20:49.673Z,8.20
2023-04-02T05:23:34.941Z,8.20
2023-04-02T05:26:18.609Z,8.20
2023-04-02T05:29:09.564Z,8.20
2023-04-02T05:32:03.403Z,8.20
2023-04-02T05:34:40.716Z,8.20
2023-04-02T05:37:19.016Z,8.20
2023-04-02T05:39:58.089Z,8.20
2023-04-02T05:42:36.043Z,8.20
2023-04-02T05:45:26.957Z,8.20
2023-04-02T05:48:04.388Z,8.10
2023-04-02T05:50:47.443Z,8.00
2023-04-02T05:53:34.397Z,8.00
2023-04-02T05:56:45.863Z,8.00
2023-04-02T05:59:26.002Z,8.00
2023-04-02T06:02:31.205Z,7.90
2023-04-02T06:05:17.161Z,7.90
2023-04-02T06:08:17.135Z,7.90
2023-04-02T06:11:18.041Z,7.90
2023-04-02T06:13:51.599Z,7.90
2023-04-02T06:16:30.119Z,7.90
2023-04-02T06:19:05.905Z,7.90
2023-04-02T06:21:45.271Z,7.90
2023-04-02T06:24:24.147Z,7.90
2023-04-02T06:27:07.401Z,7.90
2023-04-02T06:29:44.063Z,7.90
2023-04-02T06:32:26.752Z,7.90
2023-04-02T06:34:59.573Z,7.90
2023-04-02T06:37:37.538Z,7.90
2023-04-02T06:40:46.362Z,7.90
2023-04-02T06:43:44.478Z,8.00
2023-04-02T06:46:30.947Z,7.90
2023-04-02T06:49:20.515Z,8.00
2023-04-02T06:51:56.878Z,8.00
2023-04-02T06:54:31.351Z,8.00
2023-04-02T06:57:10.749Z,7.90
2023-04-02T06:59:46.663Z,7.90
2023-04-02T07:02:37.289Z,7.90
2023-04-02T07:08:36.207Z,7.80
2023-04-02T07:11:22.182Z,7.90
2023-04-02T07:13:57.973Z,7.90
2023-04-02T07:19:07.288Z,8.10
2023-04-02T07:21:43.265Z,8.00
2023-04-02T07:24:16.304Z,7.90
2023-04-02T07:26:49.011Z,8.00
2023-04-02T07:29:21.689Z,8.00
2023-04-02T07:31:54.370Z,8.00
2023-04-02T07:34:27.117Z,8.00
2023-04-02T07:36:59.762Z,8.00
2023-04-02T07:39:34.856Z,8.00
2023-04-02T07:42:09.633Z,8.00
2023-04-02T07:44:42.331Z,8.00
2023-04-02T07:47:15.000Z,8.10
2023-04-02T07:49:47.644Z,8.10
2023-04-02T07:52:21.534Z,8.10
2023-04-02T07:54:54.180Z,8.10
2023-04-02T07:57:27.300Z,8.10
2023-04-02T07:59:59.984Z,8.10
2023-04-02T08:02:32.686Z,8.10
2023-04-02T08:05:05.893Z,8.10
2023-04-02T08:07:41.971Z,8.00
2023-04-02T08:12:49.410Z,7.90
2023-04-02T08:15:22.281Z,7.90
2023-04-02T08:17:55.073Z,7.90
2023-04-02T08:20:27.844Z,7.90
2023-04-02T08:23:01.042Z,8.00
2023-04-02T08:25:34.014Z,8.00
2023-04-02T08:28:06.874Z,8.00
2023-04-02T08:30:40.119Z,8.00
2023-04-02T08:33:12.974Z,8.00
2023-04-02T08:35:47.120Z,8.00
2023-04-02T08:38:21.808Z,8.00
2023-04-02T08:40:59.604Z,8.00
2023-04-02T08:43:56.347Z,8.00
2023-04-02T08:46:49.320Z,8.00
2023-04-02T08:49:37.145Z,8.10
2023-04-02T08:52:38.138Z,8.00
2023-04-02T08:55:18.505Z,8.00
2023-04-02T08:57:57.442Z,8.00
2023-04-02T09:00:40.361Z,8.00
2023-04-02T09:03:21.405Z,8.10
2023-04-02T09:05:54.999Z,8.10
2023-04-02T09:08:30.932Z,8.20
2023-04-02T09:11:22.587Z,8.20
2023-04-02T09:13:58.293Z,8.30
2023-04-02T09:16:44.710Z,8.30
2023-04-02T09:19:23.050Z,8.40
2023-04-02T09:22:25.272Z,8.50
2023-04-02T09:25:00.564Z,8.60
2023-04-02T09:27:36.278Z,8.70
2023-04-02T09:30:35.472Z,8.80
2023-04-02T09:33:09.954Z,8.90
2023-04-02T09:35:52.094Z,9.00
2023-04-02T09:38:30.585Z,9.00
2023-04-02T09:41:06.470Z,9.10
2023-04-02T09:43:39.651Z,9.20
2023-04-02T09:46:26.308Z,9.20
2023-04-02T09:49:01.360Z,9.20
2023-04-02T09:51:36.462Z,9.30
2023-04-02T09:54:15.469Z,9.30
2023-04-02T09:57:03.275Z,9.40
2023-04-02T09:59:37.419Z,9.50
2023-04-02T10:02:28.361Z,9.60
2023-04-02T10:05:05.819Z,9.70
2023-04-02T10:07:41.467Z,9.70
2023-04-02T10:10:27.960Z,9.70
2023-04-02T10:13:06.174Z,9.70
2023-04-02T10:15:59.857Z,9.80
2023-04-02T10:18:58.077Z,9.80
2023-04-02T10:21:37.579Z,9.70
2023-04-02T10:24:13.221Z,9.70
2023-04-02T10:27:02.459Z,9.50
2023-04-02T10:29:38.027Z,9.60
2023-04-02T10:32:21.952Z,9.50
2023-04-02T10:35:00.639Z,9.50
2023-04-02T10:38:03.667Z,9.50
2023-04-02T10:41:08.485Z,9.50
2023-04-02T10:43:49.653Z,9.60
2023-04-02T10:46:32.811Z,9.60
2023-04-02T10:49:15.395Z,9.60
2023-04-02T10:51:59.584Z,9.60
2023-04-02T10:54:49.212Z,9.60
2023-04-02T10:57:41.662Z,9.60
2023-04-02T11:00:23.780Z,9.60
2023-04-02T11:03:03.027Z,9.70
2023-04-02T11:05:43.867Z,9.70
2023-04-02T11:08:41.344Z,9.70
2023-04-02T11:11:13.981Z,9.80
2023-04-02T11:13:46.626Z,9.80
2023-04-02T11:16:19.906Z,9.80
2023-04-02T11:19:20.367Z,9.80
2023-04-02T11:22:11.476Z,9.80
2023-04-02T11:24:50.942Z,9.70
2023-04-02T11:27:32.555Z,9.70
2023-04-02T11:30:13.626Z,9.70
2023-04-02T11:32:49.504Z,9.70
2023-04-02T11:35:31.598Z,9.60
2023-04-02T11:38:09.597Z,9.60
2023-04-02T11:40:59.058Z,9.60
2023-04-02T11:43:35.165Z,9.60
2023-04-02T11:46:19.834Z,9.60
2023-04-02T11:48:54.997Z,9.70
2023-04-02T11:52:05.610Z,9.70
2023-04-02T11:55:08.548Z,9.80
2023-04-02T11:58:10.870Z,9.90
2023-04-02T12:01:05.624Z,10.00
2023-04-02T12:04:08.270Z,9.90
2023-04-02T12:06:46.969Z,9.90
2023-04-02T12:09:27.789Z,9.90
2023-04-02T12:12:26.785Z,9.80
2023-04-02T12:15:00.797Z,9.80
2023-04-02T12:17:40.236Z,9.70
2023-04-02T12:20:23.427Z,9.70
2023-04-02T12:22:58.240Z,9.60
2023-04-02T12:25:40.615Z,9.60
2023-04-02T12:28:20.514Z,9.60
2023-04-02T12:31:13.041Z,9.50
2023-04-02T12:33:46.520Z,9.50
2023-04-02T12:36:23.718Z,9.50
2023-04-02T12:38:58.143Z,9.50
2023-04-02T12:41:37.170Z,9.50
2023-04-02T12:44:22.952Z,9.50
2023-04-02T12:46:56.634Z,9.50
2023-04-02T12:49:35.633Z,9.60
2023-04-02T12:52:20.521Z,9.60
2023-04-02T12:55:02.358Z,9.70
2023-04-02T12:57:38.969Z,9.70
2023-04-02T13:00:24.776Z,9.70
2023-04-02T13:03:03.190Z,9.70
2023-04-02T13:05:44.081Z,9.60
2023-04-02T13:08:19.869Z,9.60
2023-04-02T13:10:56.521Z,9.60
2023-04-02T13:13:41.555Z,9.60
2023-04-02T13:16:17.329Z,9.60
2023-04-02T13:18:51.750Z,9.50
2023-04-02T13:21:30.485Z,9.50
2023-04-02T13:24:03.268Z,9.50
2023-04-02T13:26:35.914Z,9.50
2023-04-02T13:29:32.100Z,9.50
2023-04-02T13:32:12.821Z,9.50
2023-04-02T13:34:45.666Z,9.50
2023-04-02T13:37:18.492Z,9.50
2023-04-02T13:39:51.217Z,9.50
2023-04-02T13:42:23.919Z,9.50
2023-04-02T13:44:56.727Z,9.40
2023-04-02T13:47:29.401Z,9.40
2023-04-02T13:50:02.046Z,9.30
2023-04-02T13:52:34.772Z,9.10
2023-04-02T13:55:08.818Z,9.10
2023-04-02T13:57:41.527Z,9.00
2023-04-02T14:00:14.778Z,9.00
2023-04-02T14:02:52.748Z,9.10
2023-04-02T14:05:41.622Z,9.00
2023-04-02T14:08:29.909Z,9.10
2023-04-02T14:11:21.523Z,9.10
2023-04-02T14:14:27.694Z,9.10
2023-04-02T14:17:09.809Z,9.10
2023-04-02T14:20:05.165Z,9.10
2023-04-02T14:23:11.062Z,9.00
2023-04-02T14:26:02.317Z,9.00
2023-04-02T14:28:46.302Z,9.10
2023-04-02T14:31:37.871Z,9.10
2023-04-02T14:34:29.211Z,9.10
2023-04-02T14:37:13.173Z,9.10
2023-04-02T14:40:07.621Z,9.10
2023-04-02T14:42:53.619Z,9.00
2023-04-02T14:45:48.131Z,9.00
2023-04-02T14:48:34.112Z,9.00
2023-04-02T14:51:26.178Z,8.90
2023-04-02T14:54:11.002Z,9.00
2023-04-02T14:56:54.351Z,9.00
2023-04-02T14:59:52.885Z,9.00
2023-04-02T15:02:34.937Z,8.90
2023-04-02T15:05:28.146Z,8.80
2023-04-02T15:08:05.347Z,8.80
2023-04-02T15:11:16.625Z,8.80
2023-04-02T15:14:00.154Z,8.70
2023-04-02T15:16:36.129Z,8.70
2023-04-02T15:19:14.107Z,8.60
2023-04-02T15:22:22.302Z,8.60
2023-04-02T15:24:57.965Z,8.60
2023-04-02T15:27:52.609Z,8.60
2023-04-02T15:30:29.981Z,8.50
2023-04-02T15:33:27.341Z,8.50
2023-04-02T15:36:12.027Z,8.40
2023-04-02T15:39:11.024Z,8.40
2023-04-02T15:42:07.248Z,8.30
2023-04-02T15:45:01.401Z,8.30
2023-04-02T15:47:56.745Z,8.30
2023-04-02T15:50:54.159Z,8.20
2023-04-02T15:53:43.497Z,8.20
2023-04-02T15:56:48.406Z,8.20
2023-04-02T15:59:30.158Z,8.20
2023-04-02T16:02:21.350Z,8.20
2023-04-02T16:05:04.747Z,8.10
2023-04-02T16:08:08.963Z,8.00
2023-04-02T16:10:43.543Z,7.90
2023-04-02T16:13:36.873Z,7.80
2023-04-02T16:16:29.491Z,7.80
2023-04-02T16:19:33.998Z,7.80
2023-04-02T16:22:24.360Z,7.70
2023-04-02T16:25:18.974Z,7.70
2023-04-02T16:28:08.420Z,7.70
2023-04-02T16:31:05.587Z,7.70
2023-04-02T16:33:52.923Z,7.70
2023-04-02T16:36:39.585Z,7.70
2023-04-02T16:39:37.390Z,7.70
2023-04-02T16:42:20.510Z,7.70
2023-04-02T16:45:25.530Z,7.70
2023-04-02T16:48:16.859Z,7.70
2023-04-02T16:51:21.109Z,7.70
2023-04-02T16:54:13.300Z,7.70
2023-04-02T16:57:06.241Z,7.70
2023-04-02T16:59:46.955Z,7.60
2023-04-02T17:02:42.712Z,7.60
2023-04-02T17:05:20.530Z,7.60
2023-04-02T17:08:09.148Z,7.60
2023-04-02T17:10:59.573Z,7.50
2023-04-02T17:13:48.563Z,7.50
2023-04-02T17:16:48.408Z,7.60
2023-04-02T17:19:21.520Z,7.60
2023-04-02T17:22:00.505Z,7.60
2023-04-02T17:24:44.288Z,7.60
2023-04-02T17:27:32.988Z,7.60
2023-04-02T17:30:18.314Z,7.60
2023-04-02T17:32:51.072Z,7.60
2023-04-02T17:35:33.798Z,7.60
2023-04-02T17:38:26.860Z,7.50
2023-04-02T17:41:18.056Z,7.50
2023-04-02T17:44:08.630Z,7.50
2023-04-02T17:47:12.468Z,7.50
2023-04-02T17:50:12.404Z,7.50
2023-04-02T17:52:59.674Z,7.50
2023-04-02T17:56:01.213Z,7.50
2023-04-02T17:58:56.413Z,7.50
2023-04-02T18:01:40.574Z,7.50
2023-04-02T18:04:19.385Z,7.40
2023-04-02T18:07:33.897Z,7.30
2023-04-02T18:10:31.916Z,7.30
2023-04-02T18:13:31.100Z,7.30
2023-04-02T18:16:16.700Z,7.30
2023-04-02T18:19:03.287Z,7.20
2023-04-02T18:21:54.174Z,7.20
2023-04-02T18:24:46.386Z,7.10
2023-04-02T18:27:24.801Z,7.10
2023-04-02T18:30:20.534Z,7.10
2023-04-02T18:33:23.669Z,7.10
2023-04-02T18:36:22.804Z,7.10
2023-04-02T18:39:19.714Z,7.10
2023-04-02T18:42:07.485Z,7.10
2023-04-02T18:44:53.300Z,7.10
2023-04-02T18:47:45.150Z,7.10
2023-04-02T18:50:17.896Z,7.10
2023-04-02T18:52:51.117Z,7.10
2023-04-02T18:55:33.048Z,7.10
2023-04-02T18:58:12.776Z,7.10
2023-04-02T19:00:46.278Z,7.10
2023-04-02T19:03:29.679Z,7.10
2023-04-02T19:06:22.632Z,7.10
2023-04-02T19:09:01.053Z,7.10
2023-04-02T19:11:33.874Z,7.10
2023-04-02T19:14:18.270Z,7.10
2023-04-02T19:17:28.104Z,7.00
2023-04-02T19:20:12.866Z,7.00
2023-04-02T19:23:16.680Z,6.90
2023-04-02T19:26:08.534Z,6.90
2023-04-02T19:28:53.369Z,6.90
2023-04-02T19:31:32.169Z,6.90
2023-04-02T19:34:25.832Z,6.90
2023-04-02T19:37:04.674Z,6.80
2023-04-02T19:39:46.616Z,6.80
2023-04-02T19:42:39.988Z,6.80
2023-04-02T19:45:22.248Z,6.80
2023-04-02T19:47:56.712Z,6.70
2023-04-02T19:50:29.812Z,6.70
2023-04-02T19:53:02.573Z,6.70
2023-04-02T19:55:35.707Z,6.70
2023-04-02T19:58:27.689Z,6.70
2023-04-02T20:01:01.286Z,6.70
2023-04-02T20:03:34.173Z,6.70
2023-04-02T20:06:06.986Z,6.70
2023-04-02T20:08:40.200Z,6.70
2023-04-02T20:11:12.928Z,6.70
2023-04-02T20:13:45.898Z,6.70
2023-04-02T20:16:18.632Z,6.70
2023-04-02T20:18:51.583Z,6.70
2023-04-02T20:21:24.342Z,6.70
2023-04-02T20:23:57.066Z,6.70
2023-04-02T20:26:29.962Z,6.60
2023-04-02T20:29:02.849Z,6.60
2023-04-02T20:31:35.950Z,6.50
2023-04-02T20:34:09.844Z,6.50
2023-04-02T20:36:42.693Z,6.50
2023-04-02T20:39:19.446Z,6.40
2023-04-02T20:41:52.355Z,6.30
2023-04-02T20:44:25.200Z,6.30
2023-04-02T20:46:57.906Z,6.20
2023-04-02T20:49:30.789Z,6.20
2023-04-02T20:52:03.748Z,6.20
2023-04-02T20:54:36.623Z,6.10
2023-04-02T20:57:09.354Z,6.10
2023-04-02T20:59:42.122Z,6.00
2023-04-02T21:02:14.798Z,6.00
2023-04-02T21:04:47.933Z,5.90
2023-04-02T21:07:21.005Z,5.90
2023-04-02T21:09:53.976Z,5.90
2023-04-02T21:12:26.647Z,5.90
2023-04-02T21:15:01.194Z,5.80
2023-04-02T21:17:35.699Z,5.80
2023-04-02T21:20:10.647Z,5.80
2023-04-02T21:22:43.997Z,5.70
2023-04-02T21:25:17.141Z,5.70
2023-04-02T21:27:50.120Z,5.70
2023-04-02T21:30:22.956Z,5.60
2023-04-02T21:32:55.804Z,5.60
2023-04-02T21:35:28.740Z,5.50
2023-04-02T21:38:01.449Z,5.50
2023-04-02T21:40:34.356Z,5.40
2023-04-02T21:43:07.083Z,5.40
2023-04-02T21:45:39.902Z,5.40
2023-04-02T21:48:12.593Z,5.30
2023-04-02T21:50:45.380Z,5.30
2023-04-02T21:53:18.092Z,5.30
2023-04-02T21:55:59.778Z,5.20
2023-04-02T21:58:32.786Z,5.20
2023-04-02T22:01:11.137Z,5.20
2023-04-02T22:03:47.359Z,5.30
2023-04-02T22:06:21.818Z,5.20
2023-04-02T22:08:57.066Z,5.20
2023-04-02T22:11:35.670Z,5.20
2023-04-02T22:14:08.738Z,5.20
2023-04-02T22:16:42.361Z,5.20
2023-04-02T22:19:17.019Z,5.20
2023-04-02T22:21:50.005Z,5.20
2023-04-02T22:24:22.681Z,5.10
2023-04-02T22:26:55.923Z,5.10
2023-04-02T22:29:28.716Z,5.10
2023-04-02T22:32:01.735Z,5.10
2023-04-02T22:34:34.568Z,5.10
2023-04-02T22:37:07.530Z,5.10
2023-04-02T22:39:40.258Z,5.00
2023-04-02T22:42:13.033Z,5.00
2023-04-02T22:44:45.738Z,5.00
2023-04-02T22:47:18.560Z,5.00
2023-04-02T22:49:51.203Z,4.90
2023-04-02T22:52:24.181Z,4.90
2023-04-02T22:54:56.879Z,4.90
2023-04-02T22:57:29.800Z,4.90
2023-04-02T23:00:04.698Z,4.80
2023-04-02T23:02:38.003Z,4.80
2023-04-02T23:05:11.154Z,4.80
2023-04-02T23:07:44.007Z,4.80
2023-04-02T23:10:17.112Z,4.80
2023-04-02T23:12:49.927Z,4.80
2023-04-02T23:15:22.812Z,4.80
2023-04-02T23:17:55.916Z,4.70
2023-04-02T23:20:28.627Z,4.70
2023-04-02T23:23:01.486Z,4.70
2023-04-02T23:25:37.997Z,4.70
2023-04-02T23:28:13.378Z,4.80
2023-04-02T23:30:46.021Z,4.80
2023-04-02T23:33:18.787Z,4.70
2023-04-02T23:35:51.878Z,4.70
2023-04-02T23:38:26.073Z,4.70
2023-04-02T23:40:58.752Z,4.70
2023-04-02T23:43:31.690Z,4.60
2023-04-02T23:46:04.542Z,4.60
2023-04-02T23:48:37.497Z,4.60
2023-04-02T23:51:10.324Z,4.60
2023-04-02T23:53:43.487Z,4.60
2023-04-02T23:56:16.825Z,4.60
2023-04-02T23:58:50.894Z,4.60
